Terminal Aerodrome Forecast
Issued by NWS

Home | Current Version | Previous Version | Text Only | Print | Product List | Glossary On
Versions: 1 2 3 4 5 6 7 8 9 10 11 12 13
000
FTUS45 KPSR 211100
TAFIPL
TAF
KIPL 211121Z 2112/2212 25005KT P6SM SCT250
     FM211700 VRB03KT P6SM FEW250
      TEMPO 2120/2124 13005KT
     FM220300 27005KT P6SM SKC=

USA.gov is the U.S. government's official web portal to all federal, state and local government web resources and services.